createdAt,value
2023-02-04T00:00:07.830Z,100632.78
2023-02-04T00:02:34.895Z,100631.28
2023-02-04T00:05:02.111Z,100631.84
2023-02-04T00:07:29.153Z,100625.09
2023-02-04T00:09:56.099Z,100628.81
2023-02-04T00:12:24.646Z,100622.56
2023-02-04T00:14:51.530Z,100630.69
2023-02-04T00:17:18.407Z,100625.59
2023-02-04T00:19:45.320Z,100620.97
2023-02-04T00:22:12.285Z,100616.66
2023-02-04T00:24:39.178Z,100616.94
2023-02-04T00:27:07.632Z,100608.38
2023-02-04T00:29:34.598Z,100604.97
2023-02-04T00:32:01.812Z,100600.59
2023-02-04T00:34:28.921Z,100599.78
2023-02-04T00:36:55.894Z,100595.09
2023-02-04T00:39:22.999Z,100587.88
2023-02-04T00:41:49.951Z,100592.47
2023-02-04T00:44:17.011Z,100588.88
2023-02-04T00:46:44.016Z,100589.66
2023-02-04T00:49:11.297Z,100583.19
2023-02-04T00:51:39.859Z,100575.97
2023-02-04T00:54:07.907Z,100578.03
2023-02-04T00:56:35.014Z,100574.06
2023-02-04T00:59:02.833Z,100570.56
2023-02-04T01:01:29.785Z,100560.06
2023-02-04T01:03:56.773Z,100555.31
2023-02-04T01:06:24.131Z,100550.88
2023-02-04T01:08:51.543Z,100554.81
2023-02-04T01:11:19.154Z,100554.09
2023-02-04T01:13:46.346Z,100545.50
2023-02-04T01:16:13.673Z,100537.66
2023-02-04T01:18:40.833Z,100540.31
2023-02-04T01:21:07.878Z,100536.81
2023-02-04T01:23:35.912Z,100535.19
2023-02-04T01:26:03.011Z,100524.66
2023-02-04T01:28:31.388Z,100523.50
2023-02-04T01:30:58.886Z,100534.69
2023-02-04T01:33:26.052Z,100525.38
2023-02-04T01:35:53.058Z,100522.94
2023-02-04T01:38:19.953Z,100514.72
2023-02-04T01:40:47.799Z,100513.84
2023-02-04T01:43:14.785Z,100509.06
2023-02-04T01:45:41.910Z,100505.63
2023-02-04T01:48:09.597Z,100498.94
2023-02-04T01:50:37.424Z,100501.56
2023-02-04T01:53:04.647Z,100504.00
2023-02-04T01:55:34.094Z,100500.34
2023-02-04T01:58:01.977Z,100498.88
2023-02-04T02:00:33.503Z,100495.44
2023-02-04T02:03:00.683Z,100495.31
2023-02-04T02:05:40.578Z,100489.31
2023-02-04T02:08:08.578Z,100484.88
2023-02-04T02:10:40.067Z,100482.69
2023-02-04T02:13:12.498Z,100474.22
2023-02-04T02:15:40.567Z,100477.72
2023-02-04T02:18:08.759Z,100474.66
2023-02-04T02:20:36.836Z,100475.66
2023-02-04T02:23:27.179Z,100473.16
2023-02-04T02:25:54.147Z,100464.84
2023-02-04T02:28:23.355Z,100465.84
2023-02-04T02:30:51.197Z,100453.75
2023-02-04T02:33:21.048Z,100458.34
2023-02-04T02:35:48.878Z,100451.91
2023-02-04T02:38:17.065Z,100452.16
2023-02-04T02:40:44.490Z,100444.94
2023-02-04T02:43:17.819Z,100448.56
2023-02-04T02:45:45.633Z,100429.34
2023-02-04T02:48:13.099Z,100428.66
2023-02-04T02:50:41.290Z,100420.44
2023-02-04T02:53:16.675Z,100408.25
2023-02-04T02:55:45.803Z,100408.09
2023-02-04T02:58:34.642Z,100403.94
2023-02-04T03:01:06.464Z,100410.88
2023-02-04T03:04:02.765Z,100397.28
2023-02-04T03:06:29.963Z,100394.97
2023-02-04T03:08:57.840Z,100394.25
2023-02-04T03:11:26.417Z,100397.72
2023-02-04T03:13:54.257Z,100386.16
2023-02-04T03:16:21.205Z,100395.28
2023-02-04T03:18:49.552Z,100399.31
2023-02-04T03:21:16.798Z,100396.00
2023-02-04T03:23:43.769Z,100394.47
2023-02-04T03:26:10.831Z,100398.72
2023-02-04T03:28:42.481Z,100395.78
2023-02-04T03:31:10.405Z,100392.16
2023-02-04T03:33:37.458Z,100392.41
2023-02-04T03:36:04.584Z,100391.00
2023-02-04T03:38:31.505Z,100385.25
2023-02-04T03:40:58.434Z,100386.34
2023-02-04T03:43:25.374Z,100387.75
2023-02-04T03:45:52.445Z,100383.06
2023-02-04T03:48:19.495Z,100374.66
2023-02-04T03:50:46.430Z,100378.22
2023-02-04T03:53:13.608Z,100366.38
2023-02-04T03:55:40.535Z,100362.16
2023-02-04T03:58:07.613Z,100352.63
2023-02-04T04:00:34.571Z,100350.28
2023-02-04T04:03:01.603Z,100347.78
2023-02-04T04:05:28.831Z,100343.16
2023-02-04T04:07:56.085Z,100332.47
2023-02-04T04:10:23.315Z,100331.75
2023-02-04T04:12:50.359Z,100324.19
2023-02-04T04:15:17.407Z,100313.84
2023-02-04T04:17:45.032Z,100304.88
2023-02-04T04:20:12.982Z,100300.56
2023-02-04T04:22:40.268Z,100293.06
2023-02-04T04:25:08.005Z,100289.63
2023-02-04T04:27:34.920Z,100285.38
2023-02-04T04:30:02.213Z,100280.31
2023-02-04T04:32:29.168Z,100272.81
2023-02-04T04:34:56.419Z,100266.97
2023-02-04T04:37:23.287Z,100267.59
2023-02-04T04:39:50.272Z,100270.00
2023-02-04T04:42:17.177Z,100271.16
2023-02-04T04:44:44.601Z,100265.94
2023-02-04T04:47:11.713Z,100270.09
2023-02-04T04:49:38.823Z,100273.44
2023-02-04T04:52:05.789Z,100266.47
2023-02-04T04:54:32.723Z,100264.03
2023-02-04T04:56:59.620Z,100256.16
2023-02-04T04:59:26.449Z,100250.00
2023-02-04T05:01:53.377Z,100254.97
2023-02-04T05:04:20.266Z,100246.34
2023-02-04T05:06:47.192Z,100245.63
2023-02-04T05:09:15.301Z,100241.22
2023-02-04T05:11:42.181Z,100243.69
2023-02-04T05:14:09.127Z,100239.59
2023-02-04T05:16:36.079Z,100239.75
2023-02-04T05:19:02.995Z,100241.78
2023-02-04T05:21:29.831Z,100234.94
2023-02-04T05:23:56.699Z,100243.38
2023-02-04T05:26:30.261Z,100240.06
2023-02-04T05:28:57.893Z,100240.78
2023-02-04T05:31:24.904Z,100227.69
2023-02-04T05:33:51.966Z,100230.59
2023-02-04T05:36:18.851Z,100232.97
2023-02-04T05:38:45.743Z,100233.97
2023-02-04T05:41:13.038Z,100226.19
2023-02-04T05:43:40.218Z,100231.38
2023-02-04T05:46:07.177Z,100226.28
2023-02-04T05:48:34.250Z,100227.22
2023-02-04T05:51:01.095Z,100223.09
2023-02-04T05:53:28.089Z,100224.88
2023-02-04T05:55:54.986Z,100228.25
2023-02-04T05:58:21.953Z,100223.00
2023-02-04T06:00:48.790Z,100217.97
2023-02-04T06:03:15.818Z,100226.44
2023-02-04T06:05:44.361Z,100221.13
2023-02-04T06:08:11.351Z,100222.88
2023-02-04T06:10:38.224Z,100227.34
2023-02-04T06:13:05.140Z,100229.16
2023-02-04T06:15:31.974Z,100229.03
2023-02-04T06:17:59.066Z,100227.31
2023-02-04T06:20:26.165Z,100236.28
2023-02-04T06:22:54.584Z,100232.06
2023-02-04T06:25:22.713Z,100227.41
2023-02-04T06:27:49.828Z,100222.44
2023-02-04T06:30:17.475Z,100214.00
2023-02-04T06:32:45.025Z,100208.16
2023-02-04T06:35:13.293Z,100211.84
2023-02-04T06:37:40.229Z,100208.13
2023-02-04T06:40:08.789Z,100205.53
2023-02-04T06:42:35.711Z,100211.84
2023-02-04T06:45:03.035Z,100214.63
2023-02-04T06:47:29.999Z,100211.13
2023-02-04T06:49:56.890Z,100212.66
2023-02-04T06:52:23.757Z,100209.97
2023-02-04T06:54:50.662Z,100212.78
2023-02-04T06:57:17.692Z,100199.03
2023-02-04T06:59:44.629Z,100201.56
2023-02-04T07:02:12.592Z,100195.75
2023-02-04T07:04:39.489Z,100191.41
2023-02-04T07:07:06.458Z,100187.97
2023-02-04T07:09:33.311Z,100193.41
2023-02-04T07:12:00.275Z,100194.22
2023-02-04T07:14:27.227Z,100194.44
2023-02-04T07:16:54.151Z,100189.28
2023-02-04T07:19:21.363Z,100194.91
2023-02-04T07:21:48.308Z,100188.84
2023-02-04T07:24:15.205Z,100192.38
2023-02-04T07:26:42.106Z,100182.84
2023-02-04T07:29:17.316Z,100175.94
2023-02-04T07:31:48.176Z,100175.00
2023-02-04T07:34:15.851Z,100174.16
2023-02-04T07:36:42.858Z,100170.88
2023-02-04T07:39:10.210Z,100180.66
2023-02-04T07:41:37.402Z,100170.56
2023-02-04T07:44:04.765Z,100169.72
2023-02-04T07:46:31.862Z,100178.53
2023-02-04T07:48:58.840Z,100180.13
2023-02-04T07:51:27.760Z,100174.44
2023-02-04T07:53:55.929Z,100174.31
2023-02-04T07:56:23.221Z,100158.84
2023-02-04T07:58:50.229Z,100168.13
2023-02-04T08:01:17.187Z,100160.69
2023-02-04T08:03:44.455Z,100166.75
2023-02-04T08:06:11.523Z,100165.94
2023-02-04T08:08:38.431Z,100166.91
2023-02-04T08:11:05.646Z,100167.50
2023-02-04T08:13:32.677Z,100155.69
2023-02-04T08:15:59.648Z,100157.72
2023-02-04T08:18:26.571Z,100152.81
2023-02-04T08:20:53.548Z,100155.56
2023-02-04T08:23:20.592Z,100152.66
2023-02-04T08:25:47.636Z,100153.16
2023-02-04T08:28:14.645Z,100148.53
2023-02-04T08:30:41.651Z,100153.53
2023-02-04T08:33:08.564Z,100147.66
2023-02-04T08:35:35.470Z,100156.78
2023-02-04T08:38:02.518Z,100149.31
2023-02-04T08:40:29.673Z,100150.28
2023-02-04T08:42:56.632Z,100150.25
2023-02-04T08:45:23.507Z,100146.66
2023-02-04T08:47:50.384Z,100138.72
2023-02-04T08:50:17.486Z,100149.47
2023-02-04T08:52:44.681Z,100150.38
2023-02-04T08:55:11.579Z,100151.47
2023-02-04T08:57:38.506Z,100146.00
2023-02-04T09:00:05.895Z,100143.91
2023-02-04T09:02:32.767Z,100140.72
2023-02-04T09:04:59.620Z,100144.97
2023-02-04T09:07:26.478Z,100139.38
2023-02-04T09:09:53.506Z,100129.25
2023-02-04T09:12:20.481Z,100130.16
2023-02-04T09:14:47.485Z,100140.16
2023-02-04T09:17:14.407Z,100135.41
2023-02-04T09:19:41.244Z,100128.22
2023-02-04T09:22:08.168Z,100119.00
2023-02-04T09:24:35.072Z,100123.00
2023-02-04T09:27:01.933Z,100118.91
2023-02-04T09:29:28.780Z,100100.75
2023-02-04T09:31:55.817Z,100104.19
2023-02-04T09:34:22.818Z,100106.66
2023-02-04T09:36:50.243Z,100099.56
2023-02-04T09:39:17.216Z,100096.44
2023-02-04T09:41:44.261Z,100093.63
2023-02-04T09:44:16.635Z,100087.53
2023-02-04T09:46:50.643Z,100091.88
2023-02-04T09:49:17.774Z,100081.47
2023-02-04T09:51:47.009Z,100074.38
2023-02-04T09:54:17.578Z,100068.16
2023-02-04T09:56:45.001Z,100066.47
2023-02-04T09:59:20.749Z,100069.81
2023-02-04T10:02:26.842Z,100046.06
2023-02-04T10:04:57.885Z,100048.22
2023-02-04T10:07:26.855Z,100041.41
2023-02-04T10:09:54.529Z,100042.91
2023-02-04T10:12:21.801Z,100036.63
2023-02-04T10:14:49.872Z,100042.66
2023-02-04T10:17:21.445Z,100041.41
2023-02-04T10:19:48.871Z,100039.72
2023-02-04T10:22:21.652Z,100041.28
2023-02-04T10:24:48.606Z,100040.84
2023-02-04T10:27:16.437Z,100036.84
2023-02-04T10:29:55.845Z,100035.75
2023-02-04T10:32:31.667Z,100036.84
2023-02-04T10:35:02.898Z,100029.06
2023-02-04T10:37:30.833Z,100035.66
2023-02-04T10:39:58.050Z,100025.22
2023-02-04T10:42:30.380Z,100018.78
2023-02-04T10:44:58.119Z,100024.63
2023-02-04T10:47:29.081Z,100026.28
2023-02-04T10:50:17.962Z,100022.97
2023-02-04T10:52:49.709Z,100016.75
2023-02-04T10:55:24.360Z,100015.22
2023-02-04T10:57:55.331Z,100007.44
2023-02-04T11:00:25.010Z,100008.41
2023-02-04T11:03:30.931Z,100006.66
2023-02-04T11:06:00.665Z,100000.63
2023-02-04T11:08:34.424Z,99997.00
2023-02-04T11:11:08.440Z,99994.47
2023-02-04T11:13:50.336Z,99992.03
2023-02-04T11:16:17.695Z,99993.81
2023-02-04T11:19:01.363Z,99989.31
2023-02-04T11:21:33.960Z,99986.66
2023-02-04T11:24:24.432Z,99989.53
2023-02-04T11:27:05.001Z,99997.75
2023-02-04T11:29:38.937Z,100000.25
2023-02-04T11:32:36.235Z,99997.78
2023-02-04T11:35:08.017Z,99993.47
2023-02-04T11:37:40.361Z,99992.59
2023-02-04T11:40:25.688Z,99994.34
2023-02-04T11:43:12.673Z,99983.81
2023-02-04T11:45:42.223Z,99984.69
2023-02-04T11:48:15.807Z,99982.97
2023-02-04T11:50:42.982Z,99989.91
2023-02-04T11:53:12.001Z,99982.13
2023-02-04T11:55:47.285Z,99987.25
2023-02-04T11:58:17.133Z,99979.31
2023-02-04T12:00:44.708Z,99981.84
2023-02-04T12:03:26.968Z,99976.50
2023-02-04T12:05:57.493Z,99969.28
2023-02-04T12:08:24.425Z,99966.00
2023-02-04T12:11:11.418Z,99969.88
2023-02-04T12:13:50.085Z,99968.19
2023-02-04T12:16:17.047Z,99973.41
2023-02-04T12:18:44.022Z,99973.41
2023-02-04T12:21:11.030Z,99966.41
2023-02-04T12:23:37.891Z,99967.34
2023-02-04T12:26:04.994Z,99967.31
2023-02-04T12:28:31.965Z,99968.19
2023-02-04T12:30:58.925Z,99970.75
2023-02-04T12:33:26.014Z,99971.69
2023-02-04T12:35:53.324Z,99975.19
2023-02-04T12:38:20.779Z,99981.16
2023-02-04T12:40:47.730Z,99985.28
2023-02-04T12:43:14.824Z,99986.06
2023-02-04T12:45:45.814Z,99985.16
2023-02-04T12:48:14.120Z,99996.50
2023-02-04T12:50:41.608Z,99988.63
2023-02-04T12:53:09.025Z,100003.50
2023-02-04T12:55:36.435Z,99999.28
2023-02-04T12:58:03.825Z,99996.66
2023-02-04T13:00:31.210Z,100001.00
2023-02-04T13:03:00.954Z,99997.50
2023-02-04T13:05:28.253Z,100002.66
2023-02-04T13:07:55.246Z,100001.75
2023-02-04T13:10:24.057Z,100005.25
2023-02-04T13:12:51.688Z,100009.63
2023-02-04T13:15:18.837Z,100001.66
2023-02-04T13:17:46.073Z,100009.59
2023-02-04T13:20:13.301Z,100010.56
2023-02-04T13:22:40.524Z,100013.19
2023-02-04T13:25:07.677Z,100010.47
2023-02-04T13:27:34.585Z,100006.19
2023-02-04T13:30:01.741Z,100014.84
2023-02-04T13:32:28.635Z,100014.88
2023-02-04T13:34:55.520Z,100020.94
2023-02-04T13:37:22.536Z,100018.31
2023-02-04T13:39:49.426Z,100024.41
2023-02-04T13:42:16.476Z,100021.91
2023-02-04T13:44:43.502Z,100026.19
2023-02-04T13:47:10.342Z,100025.31
2023-02-04T13:49:37.240Z,100027.84
2023-02-04T13:52:04.267Z,100032.25
2023-02-04T13:54:31.218Z,100026.97
2023-02-04T13:56:58.108Z,100033.94
2023-02-04T13:59:25.068Z,100030.47
2023-02-04T14:01:51.943Z,100038.28
2023-02-04T14:04:18.836Z,100040.72
2023-02-04T14:06:45.756Z,100043.44
2023-02-04T14:09:13.209Z,100052.38
2023-02-04T14:11:40.861Z,100048.16
2023-02-04T14:14:07.989Z,100055.84
2023-02-04T14:16:37.545Z,100045.38
2023-02-04T14:19:05.685Z,100047.28
2023-02-04T14:21:33.179Z,100050.84
2023-02-04T14:24:00.672Z,100061.16
2023-02-04T14:26:27.713Z,100055.03
2023-02-04T14:28:54.610Z,100056.75
2023-02-04T14:31:21.738Z,100054.13
2023-02-04T14:33:50.359Z,100059.34
2023-02-04T14:36:17.509Z,100058.19
2023-02-04T14:38:44.498Z,100059.28
2023-02-04T14:41:16.411Z,100058.44
2023-02-04T14:43:43.526Z,100064.94
2023-02-04T14:46:10.495Z,100069.69
2023-02-04T14:48:37.424Z,100072.38
2023-02-04T14:51:04.837Z,100077.66
2023-02-04T14:53:31.802Z,100077.44
2023-02-04T14:55:58.809Z,100084.53
2023-02-04T14:58:27.817Z,100087.19
2023-02-04T15:00:55.311Z,100095.75
2023-02-04T15:03:22.430Z,100092.75
2023-02-04T15:05:49.354Z,100099.81
2023-02-04T15:08:16.200Z,100106.78
2023-02-04T15:10:43.261Z,100097.94
2023-02-04T15:13:10.298Z,100108.50
2023-02-04T15:15:37.475Z,100104.97
2023-02-04T15:18:04.433Z,100102.09
2023-02-04T15:20:31.734Z,100111.84
2023-02-04T15:23:00.659Z,100111.72
2023-02-04T15:25:46.087Z,100111.72
2023-02-04T15:28:50.163Z,100126.63
2023-02-04T15:31:17.292Z,100125.69
2023-02-04T15:33:44.306Z,100124.03
2023-02-04T15:36:29.863Z,100127.44
2023-02-04T15:39:15.180Z,100134.88
2023-02-04T15:41:42.038Z,100141.91
2023-02-04T15:44:27.364Z,100140.03
2023-02-04T15:46:54.933Z,100138.63
2023-02-04T15:49:21.846Z,100140.31
2023-02-04T15:51:48.789Z,100139.19
2023-02-04T15:54:15.820Z,100147.22
2023-02-04T15:56:44.414Z,100148.22
2023-02-04T15:59:11.636Z,100149.28
2023-02-04T16:01:38.684Z,100148.63
2023-02-04T16:04:05.626Z,100148.44
2023-02-04T16:06:32.686Z,100157.69
2023-02-04T16:08:59.637Z,100159.81
2023-02-04T16:11:26.727Z,100165.03
2023-02-04T16:13:53.673Z,100166.28
2023-02-04T16:16:20.878Z,100167.97
2023-02-04T16:18:47.914Z,100173.41
2023-02-04T16:21:14.813Z,100180.84
2023-02-04T16:23:43.499Z,100182.22
2023-02-04T16:26:10.591Z,100189.25
2023-02-04T16:28:37.489Z,100191.91
2023-02-04T16:31:05.239Z,100190.56
2023-02-04T16:33:32.521Z,100191.22
2023-02-04T16:36:03.165Z,100193.16
2023-02-04T16:38:31.311Z,100195.66
2023-02-04T16:40:58.672Z,100202.66
2023-02-04T16:43:25.670Z,100190.91
2023-02-04T16:45:52.590Z,100195.13
2023-02-04T16:48:19.570Z,100195.88
2023-02-04T16:50:46.655Z,100199.81
2023-02-04T16:53:16.288Z,100209.53
2023-02-04T16:55:44.608Z,100211.38
2023-02-04T16:58:13.045Z,100217.31
2023-02-04T17:00:42.267Z,100221.91
2023-02-04T17:03:10.264Z,100226.13
2023-02-04T17:05:38.193Z,100219.25
2023-02-04T17:08:06.008Z,100225.38
2023-02-04T17:10:51.734Z,100227.56
2023-02-04T17:13:18.867Z,100228.00
2023-02-04T17:15:45.841Z,100230.44
2023-02-04T17:18:12.747Z,100239.44
2023-02-04T17:20:39.763Z,100238.84
2023-02-04T17:23:06.738Z,100248.06
2023-02-04T17:25:33.929Z,100246.28
2023-02-04T17:28:01.214Z,100250.59
2023-02-04T17:30:28.256Z,100250.28
2023-02-04T17:32:55.168Z,100245.88
2023-02-04T17:35:22.080Z,100243.13
2023-02-04T17:37:49.053Z,100243.41
2023-02-04T17:40:16.021Z,100247.81
2023-02-04T17:42:43.113Z,100249.34
2023-02-04T17:45:11.288Z,100245.81
2023-02-04T17:47:41.534Z,100245.91
2023-02-04T17:50:10.302Z,100249.84
2023-02-04T17:52:38.107Z,100249.06
2023-02-04T17:55:29.689Z,100252.81
2023-02-04T17:57:59.794Z,100255.28
2023-02-04T18:00:29.183Z,100261.66
2023-02-04T18:02:56.629Z,100272.13
2023-02-04T18:05:26.748Z,100261.75
2023-02-04T18:08:00.486Z,100262.97
2023-02-04T18:10:31.960Z,100270.66
2023-02-04T18:13:00.476Z,100269.47
2023-02-04T18:15:30.425Z,100269.06
2023-02-04T18:18:02.272Z,100272.50
2023-02-04T18:20:30.230Z,100276.13
2023-02-04T18:23:02.800Z,100277.47
2023-02-04T18:25:30.309Z,100277.03
2023-02-04T18:28:02.984Z,100285.81
2023-02-04T18:30:29.981Z,100283.66
2023-02-04T18:32:57.034Z,100286.25
2023-02-04T18:35:44.182Z,100290.63
2023-02-04T18:38:32.561Z,100292.41
2023-02-04T18:41:20.607Z,100299.66
2023-02-04T18:43:52.970Z,100289.66
2023-02-04T18:46:28.373Z,100290.06
2023-02-04T18:49:01.121Z,100294.72
2023-02-04T18:51:34.384Z,100285.19
2023-02-04T18:54:37.308Z,100281.94
2023-02-04T18:57:28.813Z,100283.34
2023-02-04T19:00:27.751Z,100293.50
2023-02-04T19:02:58.247Z,100294.84
2023-02-04T19:05:35.507Z,100301.72
2023-02-04T19:08:05.235Z,100297.72
2023-02-04T19:10:40.734Z,100294.63
2023-02-04T19:13:17.425Z,100305.50
2023-02-04T19:15:45.417Z,100308.59
2023-02-04T19:18:24.836Z,100304.03
2023-02-04T19:20:52.489Z,100307.00
2023-02-04T19:23:22.569Z,100313.38
2023-02-04T19:25:52.277Z,100318.44
2023-02-04T19:28:37.302Z,100319.91
2023-02-04T19:31:08.230Z,100332.81
2023-02-04T19:33:42.635Z,100328.88
2023-02-04T19:36:27.716Z,100326.72
2023-02-04T19:39:39.902Z,100332.78
2023-02-04T19:42:23.425Z,100335.91
2023-02-04T19:44:51.742Z,100341.53
2023-02-04T19:47:26.076Z,100344.69
2023-02-04T19:50:26.920Z,100344.66
2023-02-04T19:52:59.856Z,100347.09
2023-02-04T19:55:36.320Z,100344.38
2023-02-04T19:58:36.608Z,100347.31
2023-02-04T20:01:06.152Z,100349.09
2023-02-04T20:03:41.821Z,100354.69
2023-02-04T20:06:30.326Z,100349.28
2023-02-04T20:09:00.147Z,100346.69
2023-02-04T20:11:33.284Z,100358.16
2023-02-04T20:14:13.917Z,100357.59
2023-02-04T20:16:46.976Z,100348.66
2023-02-04T20:19:17.676Z,100358.81
2023-02-04T20:21:59.318Z,100356.81
2023-02-04T20:24:34.752Z,100354.19
2023-02-04T20:27:13.734Z,100360.44
2023-02-04T20:29:40.592Z,100359.94
2023-02-04T20:32:27.099Z,100366.19
2023-02-04T20:35:12.659Z,100370.69
2023-02-04T20:37:43.924Z,100371.81
2023-02-04T20:40:16.875Z,100378.34
2023-02-04T20:42:48.094Z,100371.31
2023-02-04T20:45:23.384Z,100379.81
2023-02-04T20:47:51.756Z,100380.84
2023-02-04T20:50:41.372Z,100370.06
2023-02-04T20:53:20.615Z,100375.94
2023-02-04T20:55:53.402Z,100385.16
2023-02-04T20:58:27.527Z,100375.75
2023-02-04T21:00:56.133Z,100379.56
2023-02-04T21:03:26.288Z,100384.50
2023-02-04T21:05:55.013Z,100393.91
2023-02-04T21:08:35.641Z,100392.88
2023-02-04T21:11:03.006Z,100392.56
2023-02-04T21:13:30.568Z,100395.13
2023-02-04T21:15:58.025Z,100398.97
2023-02-04T21:18:25.281Z,100412.59
2023-02-04T21:20:52.325Z,100410.91
2023-02-04T21:23:19.906Z,100408.63
2023-02-04T21:25:47.061Z,100411.34
2023-02-04T21:28:14.510Z,100411.56
2023-02-04T21:30:41.534Z,100415.63
2023-02-04T21:33:10.337Z,100411.25
2023-02-04T21:35:38.350Z,100417.38
2023-02-04T21:38:05.923Z,100416.59
2023-02-04T21:40:34.637Z,100419.81
2023-02-04T21:43:03.096Z,100427.94
2023-02-04T21:45:30.105Z,100417.03
2023-02-04T21:47:57.097Z,100428.94
2023-02-04T21:50:24.150Z,100421.50
2023-02-04T21:52:51.464Z,100425.16
2023-02-04T21:55:21.563Z,100427.91
2023-02-04T21:57:50.000Z,100422.88
2023-02-04T22:00:18.910Z,100424.25
2023-02-04T22:02:46.242Z,100420.59
2023-02-04T22:05:13.170Z,100423.78
2023-02-04T22:07:40.670Z,100424.06
2023-02-04T22:10:10.995Z,100427.91
2023-02-04T22:12:37.969Z,100426.00
2023-02-04T22:15:06.246Z,100422.94
2023-02-04T22:17:33.683Z,100425.88
2023-02-04T22:20:00.688Z,100425.50
2023-02-04T22:22:27.826Z,100424.09
2023-02-04T22:24:54.730Z,100425.94
2023-02-04T22:27:21.800Z,100413.09
2023-02-04T22:29:48.675Z,100412.63
2023-02-04T22:32:15.603Z,100415.94
2023-02-04T22:34:42.440Z,100422.00
2023-02-04T22:37:09.418Z,100419.84
2023-02-04T22:39:36.416Z,100412.88
2023-02-04T22:42:03.662Z,100402.22
2023-02-04T22:44:30.552Z,100414.75
2023-02-04T22:46:57.432Z,100403.69
2023-02-04T22:49:24.352Z,100392.94
2023-02-04T22:51:51.245Z,100402.84
2023-02-04T22:54:18.283Z,100405.69
2023-02-04T22:56:45.232Z,100402.88
2023-02-04T22:59:12.237Z,100414.25
2023-02-04T23:01:39.192Z,100402.22
2023-02-04T23:04:06.128Z,100408.56
2023-02-04T23:06:33.576Z,100411.22
2023-02-04T23:09:00.530Z,100388.38
2023-02-04T23:11:27.441Z,100405.19
2023-02-04T23:13:54.396Z,100388.03
2023-02-04T23:16:21.440Z,100397.41
2023-02-04T23:18:48.354Z,100405.03
2023-02-04T23:21:15.195Z,100383.63
2023-02-04T23:23:42.591Z,100386.50
2023-02-04T23:26:09.728Z,100396.72
2023-02-04T23:28:36.613Z,100397.75
2023-02-04T23:31:03.583Z,100395.41
2023-02-04T23:33:30.576Z,100398.00
2023-02-04T23:35:57.698Z,100401.16
2023-02-04T23:38:24.944Z,100395.03
2023-02-04T23:40:52.065Z,100404.94
2023-02-04T23:43:19.222Z,100427.19
2023-02-04T23:45:46.227Z,100417.34
2023-02-04T23:48:13.317Z,100418.22
2023-02-04T23:50:40.329Z,100397.50
2023-02-04T23:53:07.189Z,100398.44
2023-02-04T23:55:34.720Z,100435.34
2023-02-04T23:58:01.806Z,100431.91
